Погода Щитына неделю

Минская область, Белоруссия

26 мая-01 июня
  • 26мая
    Сегодня
    +11°
    +26°
    Небольшая облачность
    ВремяПогодаТемператураВлажностьДавлениеВетер, м/сВероятность осадков
    00:00Ясно и безоблачно+15°C57 %757 мм2.7 м/с2 %
    03:00Ясно и безоблачно+13°C68 %757 мм2.4 м/с2 %
    06:00Ясно и безоблачно+12°C70 %757 мм2.4 м/с2 %
    09:00Ясно и безоблачно+19°C53 %757 мм1.6 м/с2 %
    12:00Небольшая облачность+23°C33 %757 мм2.7 м/с2 %
    15:00Небольшая облачность+25°C33 %757 мм2.6 м/с2 %
    18:00Ясно и безоблачно+25°C34 %756 мм2.9 м/с2 %
    21:00Ясно и безоблачно+20°C49 %756 мм2.3 м/с2 %
  • 27мая
    Понедельник
    +13°
    +27°
    Ясно и безоблачно
    ВремяПогодаТемператураВлажностьДавлениеВетер, м/сВероятность осадков
    00:00Небольшая облачность+15°C55 %756 мм2.2 м/с2 %
    03:00Облачно с прояснениями+13°C70 %756 мм1.8 м/с2 %
    06:00Облачно с прояснениями+13°C70 %756 мм2.2 м/с2 %
    09:00Практически безоблачно+19°C59 %756 мм1.8 м/с2 %
    12:00Облачно с прояснениями+25°C39 %756 мм3.6 м/с2 %
    15:00Ясно и безоблачно+26°C34 %755 мм3.1 м/с2 %
    18:00Ясно и безоблачно+26°C38 %755 мм2.6 м/с3 %
    21:00Ясно и безоблачно+21°C63 %754 мм2.2 м/с2 %
  • 28мая
    Вторник
    +13°
    +26°
    Практически безоблачно
    ВремяПогодаТемператураВлажностьДавлениеВетер, м/сВероятность осадков
    00:00Ясно и безоблачно+16°C78 %754 мм2.2 м/с2 %
    03:00Ясно и безоблачно+15°C69 %754 мм2.6 м/с2 %
    06:00Ясно и безоблачно+15°C73 %754 мм3.2 м/с2 %
    09:00Облачно с прояснениями+21°C61 %754 мм2.7 м/с2 %
    12:00Практически безоблачно+25°C34 %753 мм4.1 м/с2 %
    15:00Практически безоблачно+25°C32 %752 мм4.0 м/с2 %
    18:00Облачно с прояснениями+24°C36 %751 мм3.0 м/с17 %
    21:00Практически безоблачно+22°C51 %751 мм3.7 м/с6 %
  • 29мая
    Среда
    +13°
    +27°
    Практически безоблачно
    ВремяПогодаТемператураВлажностьДавлениеВетер, м/сВероятность осадков
    00:00Практически безоблачно+18°C75 %751 мм4.3 м/с2 %
    03:00Ясно и безоблачно+15°C84 %750 мм3.4 м/с3 %
    06:00Ясно и безоблачно+14°C85 %750 мм3.2 м/с3 %
    09:00Ясно и безоблачно+20°C61 %750 мм2.7 м/с3 %
    12:00Ясно и безоблачно+26°C37 %750 мм3.2 м/с6 %
    15:00Практически безоблачно+27°C28 %749 мм4.1 м/с23 %
    18:00Ясно и безоблачно+26°C29 %748 мм3.8 м/с21 %
    21:00Облачно с прояснениями+21°C52 %747 мм2.0 м/с8 %
  • 30мая
    Четверг
    +14°
    +26°
    Практически безоблачно
    ВремяПогодаТемператураВлажностьДавлениеВетер, м/сВероятность осадков
    00:00Небольшая облачность+18°C50 %747 мм3.1 м/с3 %
    03:00Облачно с прояснениями+16°C54 %746 мм2.7 м/с4 %
    06:00Облачно с прояснениями+15°C66 %746 мм2.0 м/с6 %
    09:00Облачно с прояснениями+19°C57 %746 мм3.2 м/с7 %
    12:00Облачно с прояснениями+23°C50 %747 мм5.0 м/с31 %
    15:00Практически безоблачно+25°C49 %745 мм5.5 м/с48 %
    18:00Небольшая облачность, возможен дождь с грозой+23°C61 %745 мм4.0 м/с43 %
    21:00Ясно и безоблачно+21°C71 %745 мм1.9 м/с12 %
Мы используем cookies
Соглашаюсь